createdAt,value
2022-10-31T00:00:03.305Z,13.43
2022-10-31T00:05:05.527Z,12.67
2022-10-31T00:09:58.057Z,18.10
2022-10-31T00:14:50.608Z,11.53
2022-10-31T00:19:43.155Z,9.03
2022-10-31T00:24:37.035Z,11.23
2022-10-31T00:29:29.556Z,14.53
2022-10-31T00:34:22.064Z,12.63
2022-10-31T00:39:14.599Z,12.43
2022-10-31T00:44:08.464Z,10.00
2022-10-31T00:49:01.074Z,7.63
2022-10-31T00:53:53.577Z,9.30
2022-10-31T00:58:46.193Z,10.57
2022-10-31T01:03:40.836Z,10.87
2022-10-31T01:08:37.304Z,14.27
2022-10-31T01:13:30.051Z,11.67
2022-10-31T01:18:22.582Z,11.20
2022-10-31T01:23:17.426Z,15.57
2022-10-31T01:28:10.041Z,13.97
2022-10-31T01:33:02.859Z,15.57
2022-10-31T01:37:55.582Z,19.07
2022-10-31T01:42:49.750Z,17.23
2022-10-31T01:47:44.367Z,24.13
2022-10-31T01:52:39.563Z,18.67
2022-10-31T01:57:33.496Z,17.37
2022-10-31T02:02:28.407Z,17.27
2022-10-31T02:07:24.265Z,16.83
2022-10-31T02:12:17.366Z,17.13
2022-10-31T02:17:10.783Z,14.20
2022-10-31T02:22:09.080Z,17.37
2022-10-31T02:27:09.446Z,17.40
2022-10-31T02:32:06.813Z,22.80
2022-10-31T02:37:01.069Z,19.50
2022-10-31T02:42:00.967Z,20.80
2022-10-31T02:46:55.177Z,20.20
2022-10-31T02:51:49.118Z,20.00
2022-10-31T02:56:41.669Z,19.73
2022-10-31T03:01:49.158Z,21.57
2022-10-31T03:06:45.839Z,25.47
2022-10-31T03:11:45.884Z,16.47
2022-10-31T03:16:41.968Z,16.13
2022-10-31T03:21:37.809Z,14.30
2022-10-31T03:26:30.762Z,17.97
2022-10-31T03:31:29.773Z,12.87
2022-10-31T03:36:24.366Z,11.90
2022-10-31T03:41:20.339Z,12.50
2022-10-31T03:46:12.967Z,17.30
2022-10-31T03:51:10.390Z,17.10
2022-10-31T03:56:08.334Z,12.87
2022-10-31T04:01:02.980Z,13.33
2022-10-31T04:05:57.042Z,22.53
2022-10-31T04:10:51.971Z,18.27
2022-10-31T04:15:46.887Z,18.60
2022-10-31T04:20:40.682Z,19.43
2022-10-31T04:25:34.049Z,22.23
2022-10-31T04:30:28.110Z,23.13
2022-10-31T04:35:21.293Z,21.60
2022-10-31T04:40:13.959Z,23.87
2022-10-31T04:45:25.171Z,23.87
2022-10-31T04:50:20.794Z,20.40
2022-10-31T04:55:14.489Z,18.00
2022-10-31T05:00:26.243Z,19.90
2022-10-31T05:05:20.088Z,22.70
2022-10-31T05:10:15.016Z,28.50
2022-10-31T05:15:08.637Z,22.03
2022-10-31T05:20:21.055Z,25.10
2022-10-31T05:25:47.432Z,33.63
2022-10-31T05:30:40.541Z,26.50
2022-10-31T05:35:37.669Z,29.97
2022-10-31T05:40:50.288Z,23.40
2022-10-31T05:45:43.022Z,22.77
2022-10-31T05:50:50.357Z,23.03
2022-10-31T05:55:44.067Z,24.90
2022-10-31T06:00:45.071Z,26.90
2022-10-31T06:05:39.205Z,23.23
2022-10-31T06:10:32.018Z,23.33
2022-10-31T06:15:25.062Z,28.07
2022-10-31T06:20:20.569Z,24.93
2022-10-31T06:25:22.241Z,23.13
2022-10-31T06:30:16.321Z,26.87
2022-10-31T06:35:11.781Z,25.47
2022-10-31T06:40:08.220Z,27.07
2022-10-31T06:45:18.603Z,22.50
2022-10-31T06:50:49.911Z,19.97
2022-10-31T06:55:44.279Z,19.33
2022-10-31T07:00:37.145Z,15.30
2022-10-31T07:05:33.004Z,17.43
2022-10-31T07:10:26.697Z,14.30
2022-10-31T07:15:27.094Z,18.73
2022-10-31T07:20:20.739Z,20.57
2022-10-31T07:25:13.644Z,15.00
2022-10-31T07:30:24.829Z,15.23
2022-10-31T07:35:23.919Z,13.47
2022-10-31T07:40:23.498Z,14.63
2022-10-31T07:45:16.833Z,10.60
2022-10-31T07:50:31.286Z,18.93
2022-10-31T07:55:52.689Z,9.60
2022-10-31T08:00:46.578Z,14.80
2022-10-31T08:05:46.797Z,20.90
2022-10-31T08:10:54.528Z,17.13
2022-10-31T08:15:51.224Z,18.87
2022-10-31T08:20:48.005Z,17.03
2022-10-31T08:25:40.913Z,20.77
2022-10-31T08:30:34.467Z,17.87
2022-10-31T08:36:07.303Z,17.97
2022-10-31T08:41:15.101Z,19.57
2022-10-31T08:46:07.964Z,17.17
2022-10-31T08:51:01.318Z,17.13
2022-10-31T08:55:57.726Z,17.63
2022-10-31T09:00:53.036Z,20.10
2022-10-31T09:05:48.083Z,20.83
2022-10-31T09:10:40.858Z,15.03
2022-10-31T09:15:35.970Z,13.90
2022-10-31T09:20:43.354Z,21.00
2022-10-31T09:25:36.177Z,13.43
2022-10-31T09:30:50.958Z,18.60
2022-10-31T09:35:53.650Z,16.00
2022-10-31T09:40:47.164Z,14.70
2022-10-31T09:45:43.675Z,12.90
2022-10-31T09:50:54.569Z,11.70
2022-10-31T09:56:08.210Z,13.80
2022-10-31T10:01:02.636Z,12.87
2022-10-31T10:06:01.520Z,17.27
2022-10-31T10:11:21.408Z,13.60
2022-10-31T10:16:34.293Z,19.67
2022-10-31T10:21:33.023Z,15.30
2022-10-31T10:31:30.703Z,18.80
2022-10-31T10:36:28.642Z,16.30
2022-10-31T10:41:23.407Z,15.13
2022-10-31T10:46:37.472Z,22.00
2022-10-31T10:52:07.434Z,13.83
2022-10-31T10:57:04.310Z,22.80
2022-10-31T11:01:56.952Z,16.30
2022-10-31T11:06:58.563Z,14.40
2022-10-31T11:11:51.388Z,20.27
2022-10-31T11:16:46.599Z,12.93
2022-10-31T11:21:39.179Z,15.20
2022-10-31T11:26:31.777Z,15.10
2022-10-31T11:31:24.568Z,15.93
2022-10-31T11:36:21.033Z,15.67
2022-10-31T11:41:15.589Z,23.70
2022-10-31T11:46:11.740Z,16.83
2022-10-31T11:51:04.799Z,17.27
2022-10-31T11:56:07.132Z,15.17
2022-10-31T12:00:59.695Z,14.77
2022-10-31T12:05:55.869Z,14.60
2022-10-31T12:10:53.232Z,20.20
2022-10-31T12:15:49.121Z,12.43
2022-10-31T12:20:46.612Z,16.33
2022-10-31T12:25:43.808Z,16.77
2022-10-31T12:30:42.993Z,15.53
2022-10-31T12:35:42.589Z,14.03
2022-10-31T12:40:41.580Z,17.83
2022-10-31T12:45:41.705Z,19.30
2022-10-31T12:50:43.615Z,14.03
2022-10-31T12:55:53.925Z,13.57
2022-10-31T13:00:48.624Z,13.57
2022-10-31T13:05:42.395Z,18.83
2022-10-31T13:10:38.729Z,15.63
2022-10-31T13:15:34.903Z,18.60
2022-10-31T13:20:29.416Z,15.60
2022-10-31T13:25:24.382Z,22.17
2022-10-31T13:30:18.885Z,13.47
2022-10-31T13:35:16.839Z,15.90
2022-10-31T13:40:16.174Z,12.43
2022-10-31T13:45:13.562Z,15.87
2022-10-31T13:50:08.349Z,16.47
2022-10-31T13:55:02.275Z,20.23
2022-10-31T13:59:55.833Z,15.70
2022-10-31T14:04:50.465Z,18.37
2022-10-31T14:09:52.538Z,20.70
2022-10-31T14:14:49.314Z,15.80
2022-10-31T14:19:41.900Z,19.60
2022-10-31T14:24:35.856Z,22.63
2022-10-31T14:29:29.304Z,20.83
2022-10-31T14:34:24.387Z,23.40
2022-10-31T14:39:20.094Z,19.40
2022-10-31T14:44:30.674Z,19.50
2022-10-31T14:49:34.137Z,20.83
2022-10-31T14:54:29.629Z,20.73
2022-10-31T14:59:24.385Z,24.93
2022-10-31T15:04:25.270Z,22.73
2022-10-31T15:09:26.257Z,20.37
2022-10-31T15:14:24.603Z,21.10
2022-10-31T15:19:18.951Z,40.93
2022-10-31T15:24:13.568Z,19.27
2022-10-31T15:29:13.195Z,21.20
2022-10-31T15:34:08.071Z,19.73
2022-10-31T15:39:00.781Z,21.40
2022-10-31T15:43:53.500Z,22.63
2022-10-31T15:48:47.957Z,23.23
2022-10-31T15:53:44.489Z,21.70
2022-10-31T15:58:44.020Z,23.43
2022-10-31T16:03:36.578Z,26.67
2022-10-31T16:08:37.451Z,27.67
2022-10-31T16:13:30.975Z,33.53
2022-10-31T16:18:23.641Z,33.87
2022-10-31T16:23:18.342Z,35.27
2022-10-31T16:28:18.232Z,33.70
2022-10-31T16:33:23.001Z,40.77
2022-10-31T16:38:15.597Z,29.97
2022-10-31T16:43:11.479Z,35.30
2022-10-31T16:48:12.020Z,34.00
2022-10-31T16:53:19.745Z,30.90
2022-10-31T16:58:15.470Z,37.83
2022-10-31T17:03:11.207Z,41.20
2022-10-31T17:08:03.991Z,43.83
2022-10-31T17:12:57.969Z,68.53
2022-10-31T17:17:50.545Z,48.07
2022-10-31T17:22:44.421Z,54.83
2022-10-31T17:27:36.983Z,45.93
2022-10-31T17:32:29.546Z,47.93
2022-10-31T17:37:22.083Z,47.90
2022-10-31T17:42:15.997Z,43.37
2022-10-31T17:47:08.561Z,59.17
2022-10-31T17:52:01.826Z,45.80
2022-10-31T17:56:54.547Z,42.80
2022-10-31T18:01:48.577Z,41.43
2022-10-31T18:06:41.191Z,43.90
2022-10-31T18:11:33.755Z,45.60
2022-10-31T18:16:27.006Z,43.77
2022-10-31T18:21:21.162Z,43.37
2022-10-31T18:26:13.732Z,47.13
2022-10-31T18:31:06.433Z,45.40
2022-10-31T18:36:04.496Z,45.47
2022-10-31T18:40:58.403Z,43.80
2022-10-31T18:45:55.034Z,42.33
2022-10-31T18:50:50.644Z,47.83
2022-10-31T18:55:47.257Z,51.07
2022-10-31T19:00:43.137Z,52.47
2022-10-31T19:05:35.754Z,47.40
2022-10-31T19:10:28.310Z,56.47
2022-10-31T19:15:21.175Z,64.77
2022-10-31T19:20:15.421Z,64.93
2022-10-31T19:25:10.453Z,71.20
2022-10-31T19:30:03.962Z,82.93
2022-10-31T19:34:56.555Z,61.10
2022-10-31T19:39:50.448Z,65.60
2022-10-31T19:44:43.028Z,75.43
2022-10-31T19:49:35.603Z,87.27
2022-10-31T19:54:28.239Z,74.57
2022-10-31T19:59:22.185Z,81.13
2022-10-31T20:04:14.866Z,83.63
2022-10-31T20:09:09.590Z,75.67
2022-10-31T20:14:02.141Z,62.30
2022-10-31T20:18:56.148Z,46.13
2022-10-31T20:23:49.064Z,40.93
2022-10-31T20:28:43.634Z,30.63
2022-10-31T20:33:36.381Z,30.47
2022-10-31T20:38:30.301Z,32.40
2022-10-31T20:43:22.915Z,28.80
2022-10-31T20:48:15.447Z,28.80
2022-10-31T20:53:08.030Z,18.73
2022-10-31T20:58:01.937Z,19.50
2022-10-31T21:02:54.571Z,16.90
2022-10-31T21:07:47.180Z,14.73
2022-10-31T21:12:40.625Z,14.67
2022-10-31T21:17:34.604Z,19.60
2022-10-31T21:22:27.182Z,13.73
2022-10-31T21:27:19.767Z,14.90
2022-10-31T21:32:12.356Z,16.47
2022-10-31T21:37:06.514Z,12.80
2022-10-31T21:41:59.072Z,17.37
2022-10-31T21:46:51.635Z,28.93
2022-10-31T21:51:44.280Z,29.77
2022-10-31T21:56:38.293Z,29.10
2022-10-31T22:01:30.989Z,26.10
2022-10-31T22:06:26.200Z,23.93
2022-10-31T22:11:19.567Z,23.20
2022-10-31T22:16:14.681Z,21.80
2022-10-31T22:21:08.159Z,20.07
2022-10-31T22:26:02.983Z,18.17
2022-10-31T22:30:55.519Z,15.63
2022-10-31T22:35:49.455Z,18.50
2022-10-31T22:40:42.061Z,25.27
2022-10-31T22:45:34.626Z,22.80
2022-10-31T22:50:27.213Z,26.73
2022-10-31T22:55:21.181Z,28.30
2022-10-31T23:00:14.077Z,23.90
2022-10-31T23:05:06.769Z,30.07
2022-10-31T23:09:59.346Z,30.70
2022-10-31T23:14:53.244Z,30.40
2022-10-31T23:19:46.029Z,31.37
2022-10-31T23:24:39.373Z,28.20
2022-10-31T23:29:31.980Z,20.80
2022-10-31T23:34:26.149Z,25.80
2022-10-31T23:39:21.261Z,15.60
2022-10-31T23:44:16.826Z,17.17
2022-10-31T23:49:09.711Z,11.60
2022-10-31T23:54:03.716Z,13.13
2022-10-31T23:58:56.294Z,14.57
